createdAt,value
2018-07-12T03:17:27.867Z,19.10
2018-07-12T03:18:27.862Z,19.31
2018-07-12T03:19:27.854Z,19.33
2018-07-12T03:20:27.854Z,19.35
2018-07-12T03:21:27.839Z,19.35
2018-07-12T03:22:27.839Z,19.20
2018-07-12T03:23:27.839Z,19.23
2018-07-12T03:24:27.841Z,18.92
2018-07-12T03:25:27.838Z,19.11
2018-07-12T03:26:27.846Z,19.05
2018-07-12T03:27:27.835Z,19.18
2018-07-12T03:28:27.831Z,19.17
2018-07-12T03:29:27.837Z,19.11
2018-07-12T03:30:27.839Z,19.02
2018-07-12T03:31:27.836Z,19.01
2018-07-12T03:32:27.836Z,19.05
2018-07-12T03:33:27.844Z,19.11
2018-07-12T03:34:27.834Z,19.23
2018-07-12T03:35:27.841Z,19.28
2018-07-12T03:36:27.847Z,19.18
2018-07-12T03:37:27.840Z,19.17
2018-07-12T03:38:27.859Z,19.32
2018-07-12T03:39:27.844Z,19.24
2018-07-12T03:40:27.858Z,19.15
2018-07-12T03:41:27.860Z,19.31
2018-07-12T03:42:27.847Z,19.29
2018-07-12T03:43:27.850Z,19.10
2018-07-12T03:44:27.854Z,19.10
2018-07-12T03:45:27.868Z,18.97
2018-07-12T03:46:27.851Z,18.91
2018-07-12T03:47:27.858Z,19.02
2018-07-12T03:48:27.868Z,19.18
2018-07-12T03:49:27.865Z,19.35
2018-07-12T03:50:27.857Z,19.24
2018-07-12T03:51:27.885Z,19.33
2018-07-12T03:52:27.861Z,19.24
2018-07-12T03:53:27.877Z,19.35
2018-07-12T03:54:27.883Z,19.31
2018-07-12T03:55:27.918Z,19.29
2018-07-12T03:56:27.888Z,19.25
2018-07-12T03:57:27.877Z,19.20
2018-07-12T03:58:27.887Z,19.36
2018-07-12T03:59:27.903Z,19.32
2018-07-12T04:00:27.913Z,19.33
2018-07-12T04:01:27.870Z,19.33
2018-07-12T04:02:28.585Z,19.31
2018-07-12T04:03:27.921Z,19.33
2018-07-12T04:04:27.882Z,19.38
2018-07-12T04:05:27.891Z,19.13
2018-07-12T04:06:27.887Z,19.08
2018-07-12T04:07:27.885Z,19.28
2018-07-12T04:08:27.887Z,19.38
2018-07-12T04:09:27.887Z,19.20
2018-07-12T04:10:27.888Z,19.33
2018-07-12T04:11:27.891Z,19.33
2018-07-12T04:12:27.962Z,19.18
2018-07-12T04:13:27.890Z,19.17
2018-07-12T04:14:27.938Z,19.13
2018-07-12T04:15:27.898Z,19.33
2018-07-12T04:16:27.903Z,19.24
2018-07-12T04:17:27.914Z,19.35
2018-07-12T04:18:27.910Z,19.35
2018-07-12T04:19:27.913Z,19.33
2018-07-12T04:20:27.910Z,19.25
2018-07-12T04:21:27.907Z,19.28
2018-07-12T04:22:27.941Z,19.38
2018-07-12T04:23:27.911Z,19.40
2018-07-12T04:24:27.915Z,19.38
2018-07-12T04:25:27.918Z,19.32
2018-07-12T04:26:27.921Z,19.13
2018-07-12T04:27:27.926Z,19.31
2018-07-12T04:28:28.016Z,19.38
2018-07-12T04:29:27.932Z,19.32
2018-07-12T04:30:27.922Z,19.18
2018-07-12T04:32:50.113Z,19.23
2018-07-12T04:33:49.043Z,19.35
2018-07-12T04:34:49.035Z,19.21
2018-07-12T04:35:49.020Z,19.13
2018-07-12T04:36:49.015Z,19.17
2018-07-12T04:37:49.097Z,19.20
2018-07-12T04:38:49.021Z,19.21
2018-07-12T04:39:49.026Z,19.32
2018-07-12T04:40:49.030Z,19.38
2018-07-12T04:41:49.026Z,19.13
2018-07-12T04:42:49.029Z,19.23
2018-07-12T04:43:49.032Z,19.31
2018-07-12T04:44:49.037Z,19.32
2018-07-12T04:45:49.286Z,19.15
2018-07-12T04:46:49.033Z,19.02
2018-07-12T04:47:49.038Z,19.13
2018-07-12T04:48:49.315Z,19.15
2018-07-12T04:49:49.050Z,19.17
2018-07-12T04:50:49.065Z,19.28
2018-07-12T04:51:49.059Z,19.21
2018-07-12T04:52:49.050Z,19.18
2018-07-12T04:53:49.060Z,19.31
2018-07-12T04:54:49.062Z,19.35
2018-07-12T04:55:49.096Z,19.21
2018-07-12T04:56:49.072Z,19.23
2018-07-12T04:57:49.075Z,19.18
2018-07-12T04:58:49.095Z,19.20
2018-07-12T04:59:49.062Z,19.25
2018-07-12T05:00:49.061Z,19.15
2018-07-12T05:01:49.058Z,19.17
2018-07-12T05:02:49.064Z,19.35
2018-07-12T05:03:49.133Z,19.33
2018-07-12T05:04:49.069Z,19.23
2018-07-12T05:05:49.066Z,19.17
2018-07-12T05:06:49.117Z,19.25
2018-07-12T05:07:49.142Z,19.31
2018-07-12T05:08:49.290Z,19.20
2018-07-12T05:09:49.219Z,19.08
2018-07-12T05:10:49.088Z,19.15
2018-07-12T05:11:49.075Z,19.42
2018-07-12T05:12:49.089Z,19.32
2018-07-12T05:13:49.082Z,19.32
2018-07-12T05:14:49.100Z,19.33
2018-07-12T05:15:49.088Z,19.28
2018-07-12T05:16:49.094Z,19.20
2018-07-12T05:17:49.120Z,19.11
2018-07-12T05:18:49.101Z,19.29
2018-07-12T05:19:49.252Z,19.33
2018-07-12T05:20:49.094Z,19.36
2018-07-12T05:21:49.147Z,19.46
2018-07-12T05:22:49.096Z,19.33
2018-07-12T05:23:49.099Z,19.28
2018-07-12T05:24:49.102Z,19.35
2018-07-12T05:25:49.101Z,19.40
2018-07-12T05:26:49.106Z,19.32
2018-07-12T05:27:49.113Z,19.36
2018-07-12T05:28:49.120Z,19.32
2018-07-12T05:29:49.119Z,19.35
2018-07-12T05:30:49.171Z,19.46
2018-07-12T05:31:49.134Z,19.33
2018-07-12T05:32:49.265Z,19.32
2018-07-12T05:33:49.122Z,19.31
2018-07-12T05:34:49.126Z,19.32
2018-07-12T05:35:49.137Z,19.40
2018-07-12T05:36:49.148Z,19.40
2018-07-12T05:37:49.124Z,19.32
2018-07-12T05:38:49.154Z,19.53
2018-07-12T05:39:49.130Z,19.38
2018-07-12T05:40:49.130Z,19.42
2018-07-12T05:41:49.130Z,19.35
2018-07-12T05:42:49.142Z,19.35
2018-07-12T05:43:49.139Z,19.43
2018-07-12T05:44:49.359Z,19.35
2018-07-12T05:45:49.139Z,19.33
2018-07-12T05:46:49.222Z,19.33
2018-07-12T05:47:49.163Z,19.29
2018-07-12T05:48:49.147Z,19.28
2018-07-12T05:49:49.148Z,19.32
2018-07-12T05:50:49.152Z,19.39
2018-07-12T05:51:49.159Z,19.36
2018-07-12T05:52:49.170Z,19.39
2018-07-12T05:53:49.160Z,19.32
2018-07-12T05:54:49.158Z,19.32
2018-07-12T05:55:49.163Z,19.31
2018-07-12T05:56:49.175Z,19.33
2018-07-12T05:57:49.442Z,19.24
2018-07-12T05:58:49.178Z,19.35
2018-07-12T05:59:49.167Z,19.17
2018-07-12T06:00:49.177Z,19.23
2018-07-12T06:01:49.189Z,19.33
2018-07-12T06:02:49.225Z,19.43
2018-07-12T06:03:49.193Z,19.33
2018-07-12T06:04:49.204Z,19.36
2018-07-12T06:05:49.183Z,19.47
2018-07-12T06:06:49.195Z,19.40
2018-07-12T06:07:49.184Z,19.40
2018-07-12T06:08:49.192Z,19.38
2018-07-12T06:09:49.198Z,19.42
2018-07-12T06:10:49.204Z,19.29
2018-07-12T06:11:49.195Z,19.24
2018-07-12T06:12:49.196Z,19.38
2018-07-12T06:13:49.201Z,19.20
2018-07-12T06:14:49.206Z,19.39
2018-07-12T06:15:49.205Z,19.25
2018-07-12T06:16:49.205Z,19.43
2018-07-12T06:17:49.207Z,19.48
2018-07-12T06:18:49.254Z,19.33
2018-07-12T06:19:49.224Z,19.43
2018-07-12T06:20:49.208Z,19.46
2018-07-12T06:21:49.209Z,19.32
2018-07-12T06:22:49.227Z,19.35
2018-07-12T06:23:49.216Z,19.46
2018-07-12T06:24:49.221Z,19.54
2018-07-12T06:25:49.230Z,19.51
2018-07-12T06:26:49.227Z,19.51
2018-07-12T06:27:49.227Z,19.33
2018-07-12T06:28:49.236Z,19.35
2018-07-12T06:29:49.235Z,19.54
2018-07-12T06:30:49.230Z,19.54
2018-07-12T06:31:49.234Z,19.60
2018-07-12T06:32:49.243Z,19.39
2018-07-12T06:33:59.701Z,19.36
2018-07-12T06:35:42.722Z,19.32
2018-07-12T06:36:42.694Z,19.33
2018-07-12T06:37:42.702Z,19.35
2018-07-12T06:38:42.669Z,19.36
2018-07-12T06:39:42.668Z,19.38
2018-07-12T06:40:42.666Z,19.47
2018-07-12T06:41:42.676Z,19.39
2018-07-12T06:42:42.787Z,19.25
2018-07-12T06:43:42.718Z,19.35
2018-07-12T06:44:42.706Z,19.25
2018-07-12T06:45:42.743Z,19.25
2018-07-12T06:46:42.788Z,19.23
2018-07-12T06:47:42.679Z,19.13
2018-07-12T06:48:42.738Z,19.25
2018-07-12T06:49:42.712Z,19.31
2018-07-12T06:50:42.691Z,19.39
2018-07-12T06:51:42.690Z,19.25
2018-07-12T06:52:42.765Z,19.17
2018-07-12T06:53:42.722Z,19.32
2018-07-12T06:54:42.742Z,19.51
2018-07-12T06:55:42.729Z,19.53
2018-07-12T06:56:42.706Z,19.58
2018-07-12T06:57:42.773Z,19.50
2018-07-12T06:58:42.762Z,19.38
2018-07-12T06:59:42.711Z,19.53
2018-07-12T07:00:42.871Z,19.57
2018-07-12T07:01:42.769Z,19.51
2018-07-12T07:02:42.719Z,19.42
2018-07-12T07:03:52.535Z,19.38
2018-07-12T07:05:37.931Z,19.29
2018-07-12T07:06:37.346Z,19.46
2018-07-12T07:07:37.354Z,19.38
2018-07-12T07:08:37.446Z,19.43
2018-07-12T07:09:37.351Z,19.39
2018-07-12T07:10:37.372Z,19.42
2018-07-12T07:11:37.333Z,19.51
2018-07-12T07:12:37.356Z,19.50
2018-07-12T07:13:37.390Z,19.54
2018-07-12T07:14:37.375Z,19.48
2018-07-12T07:15:37.380Z,19.54
2018-07-12T07:16:37.513Z,19.54
2018-07-12T07:17:37.372Z,19.60
2018-07-12T07:18:37.415Z,19.78
2018-07-12T07:19:37.388Z,19.73
2018-07-12T07:20:37.388Z,19.63
2018-07-12T07:21:37.425Z,19.63
2018-07-12T07:22:37.420Z,19.73
2018-07-12T07:23:37.426Z,19.78
2018-07-12T07:24:37.350Z,19.65
2018-07-12T07:25:37.396Z,19.73
2018-07-12T07:26:37.361Z,19.72
2018-07-12T07:27:37.436Z,19.88
2018-07-12T07:28:37.549Z,19.79
2018-07-12T07:29:37.451Z,19.76
2018-07-12T07:30:37.484Z,19.90
2018-07-12T07:31:37.435Z,19.88
2018-07-12T07:32:37.449Z,20.02
2018-07-12T07:33:37.477Z,20.20
2018-07-12T07:34:37.441Z,20.25
2018-07-12T07:35:37.638Z,20.25
2018-07-12T07:36:37.436Z,20.23
2018-07-12T07:37:37.472Z,20.27
2018-07-12T07:38:37.425Z,20.18
2018-07-12T07:39:37.403Z,20.15
2018-07-12T07:40:37.535Z,20.06
2018-07-12T07:41:37.549Z,20.03
2018-07-12T07:42:37.446Z,20.18
2018-07-12T07:43:37.456Z,20.03
2018-07-12T07:44:37.563Z,20.02
2018-07-12T07:45:37.437Z,20.15
2018-07-12T07:46:37.533Z,20.18
2018-07-12T07:47:37.502Z,20.16
2018-07-12T07:48:37.448Z,20.25
2018-07-12T07:49:37.512Z,20.12
2018-07-12T07:50:37.509Z,20.13
2018-07-12T07:51:37.529Z,20.02
2018-07-12T07:52:37.436Z,20.16
2018-07-12T07:53:37.513Z,20.23
2018-07-12T07:54:37.441Z,20.27
2018-07-12T07:55:37.511Z,20.25
2018-07-12T07:56:37.500Z,20.21
2018-07-12T07:57:37.466Z,20.25
2018-07-12T07:58:37.465Z,20.31
2018-07-12T07:59:37.460Z,20.28
2018-07-12T08:00:37.490Z,20.33
2018-07-12T08:01:37.524Z,20.41
2018-07-12T08:02:37.529Z,20.41
2018-07-12T08:03:37.511Z,20.49
2018-07-12T08:04:37.537Z,20.49
2018-07-12T08:05:37.502Z,20.47
2018-07-12T08:06:37.511Z,20.34
2018-07-12T08:07:37.531Z,20.34
2018-07-12T08:08:37.490Z,20.38
2018-07-12T08:09:37.587Z,20.42
2018-07-12T08:10:37.494Z,20.31
2018-07-12T08:11:37.495Z,20.20
2018-07-12T08:12:37.501Z,20.23
2018-07-12T08:13:37.539Z,20.28
2018-07-12T08:14:37.554Z,20.33
2018-07-12T08:15:37.511Z,20.39
2018-07-12T08:16:37.536Z,20.49
2018-07-12T08:17:37.535Z,20.49
2018-07-12T08:18:37.543Z,20.41
2018-07-12T08:19:37.526Z,20.38
2018-07-12T08:20:37.589Z,20.24
2018-07-12T08:21:37.536Z,20.13
2018-07-12T08:22:37.535Z,20.12
2018-07-12T08:23:37.612Z,20.21
2018-07-12T08:24:37.554Z,20.24
2018-07-12T08:25:37.547Z,20.41
2018-07-12T08:26:37.586Z,20.54
2018-07-12T08:27:37.552Z,20.58
2018-07-12T08:28:37.580Z,20.49
2018-07-12T08:29:37.610Z,20.49
2018-07-12T08:30:37.571Z,20.50
2018-07-12T08:31:37.700Z,20.58
2018-07-12T08:32:37.574Z,20.61
2018-07-12T08:33:37.608Z,20.61
2018-07-12T08:34:37.617Z,20.58
2018-07-12T08:35:37.590Z,20.69
2018-07-12T08:36:37.600Z,20.72
2018-07-12T08:37:37.613Z,20.77
2018-07-12T08:38:37.635Z,20.84
2018-07-12T08:39:47.343Z,20.80
2018-07-12T08:41:31.130Z,20.77
2018-07-12T08:42:31.075Z,20.81
2018-07-12T08:43:31.059Z,20.65
2018-07-12T08:44:31.057Z,20.71
2018-07-12T08:45:31.043Z,20.72
2018-07-12T08:46:33.571Z,20.50
2018-07-12T08:47:31.051Z,20.53
2018-07-12T08:48:31.088Z,20.51
2018-07-12T08:49:31.117Z,20.54
2018-07-12T08:50:31.073Z,20.58
2018-07-12T08:51:31.037Z,20.66
2018-07-12T08:52:31.044Z,20.77
2018-07-12T08:53:31.048Z,20.69
2018-07-12T08:54:31.059Z,20.79
2018-07-12T08:55:31.050Z,20.93
2018-07-12T08:56:31.065Z,20.96
2018-07-12T08:57:39.736Z,21.11
2018-07-12T08:59:35.607Z,21.32
2018-07-12T09:00:24.500Z,21.51
2018-07-12T09:01:24.534Z,21.39
2018-07-12T09:02:24.515Z,21.32
2018-07-12T09:03:36.237Z,21.08
2018-07-12T09:05:18.998Z,20.93
